Estación Meteorológica Peña el Pijo (Robertgarden) [ 01/30/23 14:21:18 CET ]

Fecha Hora Presion(HPa) Temp (°C) Humedad % Rocio (°C) Viento ( m/s) Direccion Lluvia 1Hora(mm) Lluvia 24H(mm) LLuvia Total(mm)
2012-Jun-09 01:01:13 1012.400 14.4 51 4.4         159.54
2012-Jun-09 02:01:15 1011.800 12.8 56 4.2         159.54
2012-Jun-09 03:04:46 1011.900 11.4 59 3.6         159.54
2012-Jun-09 04:01:43 1011.900 10.5 61 3.3         159.54
2012-Jun-09 05:01:48 1012.300 10.1 63 3.4         159.54
2012-Jun-09 06:01:47 1012.200 8.9 66 2.9         159.54
2012-Jun-09 07:01:18 1012.100 8.1 69 2.8         159.54
2012-Jun-09 08:01:13 1012.600 11.5 64 4.9         159.54
2012-Jun-09 09:01:12 1013.100 18.4 48 7.2         159.54
2012-Jun-09 10:01:14 1013.200 22.3 35 6.0 0.5 SSW     159.54
2012-Jun-09 11:01:15 1013.000 25.0 31 6.7 1.5 NNE     159.54
2012-Jun-09 12:01:15 1013.300 27.6 27 6.7         159.54
2012-Jun-09 13:01:11 1012.900 28.1 26 6.6         159.54
2012-Jun-09 14:01:11 1012.600 29.7 23 6.2         159.54
2012-Jun-09 15:01:17 1012.300 29.4 21 4.7         159.54
2012-Jun-09 16:01:13 1012.300 30.9 19 4.5         159.54
2012-Jun-09 17:01:14 1011.900 30.9 17 2.5 1.0 NNE     159.54
2012-Jun-09 18:01:16 1011.800 30.9 14 -0.3 0.2 SW     159.54
2012-Jun-09 19:01:16 1012.200 28.2 17 0.3         159.54
2012-Jun-09 20:01:16 1012.800 25.6 17 -1.8         159.54
2012-Jun-09 21:01:12 1013.000 22.8 19 -2.2         159.54
2012-Jun-09 22:01:16 1013.200 18.9 28 -0.1         159.54
2012-Jun-09 23:01:16 1014.000 16.3 34 0.3         159.54

Temperatura Máxima:30°    Temperatura Mínima:
Presión Máxima:1014.000 Hpa    Presión Mínima:1011.800 Hpa


Volver